Time;durP1;ratioP1;P1;durP2;ratioP2;P2;SDS_P1;SDS_P2;PMS_P1;PMS_P2;Temp;Humidity;BMP_temperature;BMP_pressure;BME280_temperature;BME280_humidity;BME280_pressure;Samples;Min_cycle;Max_cycle;Signal;HPM_P1;HPM_P2
2022/02/18 00:02:16;;;;;;;71.63;5.50;;;;;;;;;;5093125;28;20452;-73
2022/02/18 00:04:43;;;;;;;70.40;5.67;;;;;;;;;;5092951;28;20552;-73
2022/02/18 00:07:10;;;;;;;67.37;5.13;;;;;;;;;;5093097;28;20445;-72
2022/02/18 00:09:37;;;;;;;70.97;5.00;;;;;;;;;;5092829;28;20902;-71
2022/02/18 00:12:05;;;;;;;64.13;4.77;;;;;;;;;;5093021;28;20438;-71
2022/02/18 00:14:33;;;;;;;69.27;5.50;;;;;;;;;;5084866;28;21136;-72
2022/02/18 00:17:00;;;;;;;65.33;4.87;;;;;;;;;;5072378;28;20480;-72
2022/02/18 00:19:29;;;;;;;68.33;5.27;;;;;;;;;;5071902;28;20450;-72
2022/02/18 00:21:56;;;;;;;66.03;4.87;;;;;;;;;;5072322;28;20497;-72
2022/02/18 00:24:23;;;;;;;72.30;5.30;;;;;;;;;;5072088;28;20471;-72
2022/02/18 00:26:50;;;;;;;63.87;4.30;;;;;;;;;;5072322;28;20457;-72
2022/02/18 00:29:17;;;;;;;67.10;5.33;;;;;;;;;;5071899;28;20469;-73
2022/02/18 00:31:46;;;;;;;74.60;8.43;;;;;;;;;;5072423;28;20446;-72
2022/02/18 00:34:13;;;;;;;76.93;5.10;;;;;;;;;;5071984;28;20473;-72
2022/02/18 00:36:40;;;;;;;67.43;4.80;;;;;;;;;;5072073;28;20507;-72
2022/02/18 00:39:07;;;;;;;82.77;5.90;;;;;;;;;;5071690;28;20460;-72
2022/02/18 00:41:35;;;;;;;67.87;5.03;;;;;;;;;;5071311;28;20554;-72
2022/02/18 00:44:03;;;;;;;71.03;4.70;;;;;;;;;;5071855;28;20552;-72
2022/02/18 00:46:30;;;;;;;67.53;5.60;;;;;;;;;;5077954;28;20885;-73
2022/02/18 00:48:58;;;;;;;71.10;5.23;;;;;;;;;;5092159;28;20445;-72
2022/02/18 00:51:25;;;;;;;64.47;5.00;;;;;;;;;;5092110;28;20441;-72
2022/02/18 00:53:52;;;;;;;75.00;5.43;;;;;;;;;;5091895;28;20555;-72
2022/02/18 00:56:20;;;;;;;73.23;5.50;;;;;;;;;;5091747;28;20963;-73
2022/02/18 00:58:47;;;;;;;69.13;5.57;;;;;;;;;;5091408;28;20453;-72
2022/02/18 01:01:14;;;;;;;68.67;4.73;;;;;;;;;;5091981;28;20575;-72
2022/02/18 01:03:41;;;;;;;73.03;4.80;;;;;;;;;;5092041;28;20446;-72
2022/02/18 01:06:10;;;;;;;68.20;4.93;;;;;;;;;;5091960;28;20544;-73
2022/02/18 01:08:37;;;;;;;66.50;4.60;;;;;;;;;;5091670;28;20451;-73
2022/02/18 01:11:04;;;;;;;73.40;5.77;;;;;;;;;;5092076;28;20467;-70
2022/02/18 01:13:31;;;;;;;69.67;5.23;;;;;;;;;;5091954;28;20444;-72
2022/02/18 01:15:59;;;;;;;67.03;4.83;;;;;;;;;;5091748;28;20492;-73
2022/02/18 01:18:26;;;;;;;68.17;5.47;;;;;;;;;;5082426;28;20486;-72
2022/02/18 01:20:53;;;;;;;68.27;5.17;;;;;;;;;;5071411;28;20472;-73
2022/02/18 01:23:21;;;;;;;65.17;5.03;;;;;;;;;;5070970;28;20465;-70
2022/02/18 01:25:49;;;;;;;68.70;4.63;;;;;;;;;;5071556;28;20469;-71
2022/02/18 01:28:16;;;;;;;70.80;5.80;;;;;;;;;;5071134;28;20544;-72
2022/02/18 01:30:43;;;;;;;77.13;4.70;;;;;;;;;;5070986;28;20450;-72
2022/02/18 01:33:11;;;;;;;65.37;4.23;;;;;;;;;;5071293;28;20557;-71
2022/02/18 01:35:38;;;;;;;66.50;5.00;;;;;;;;;;5071037;28;20485;-71
2022/02/18 01:38:06;;;;;;;72.97;5.23;;;;;;;;;;5070723;28;20946;-70
2022/02/18 01:40:35;;;;;;;67.87;4.90;;;;;;;;;;5071089;28;20550;-72
2022/02/18 01:43:02;;;;;;;66.67;4.80;;;;;;;;;;5071266;28;20532;-71
2022/02/18 01:45:29;;;;;;;73.17;5.90;;;;;;;;;;5071175;28;20513;-71
2022/02/18 01:47:56;;;;;;;72.57;5.20;;;;;;;;;;5070997;28;20456;-70
2022/02/18 01:50:23;;;;;;;65.90;4.50;;;;;;;;;;5069995;28;20450;-72
2022/02/18 01:52:51;;;;;;;68.57;4.33;;;;;;;;;;5071711;28;20464;-71
2022/02/18 01:55:19;;;;;;;73.40;4.97;;;;;;;;;;5075393;28;20505;-70
2022/02/18 01:57:49;;;;;;;70.73;5.60;;;;;;;;;;5075472;28;20446;-70
2022/02/18 02:00:17;;;;;;;73.37;5.53;;;;;;;;;;5076030;28;20441;-70
2022/02/18 02:02:44;;;;;;;68.10;5.00;;;;;;;;;;5075323;28;20489;-73
2022/02/18 02:05:12;;;;;;;65.20;4.37;;;;;;;;;;5075389;28;20477;-72
2022/02/18 02:07:39;;;;;;;63.67;4.40;;;;;;;;;;5075305;28;20450;-72
2022/02/18 02:10:07;;;;;;;72.37;5.70;;;;;;;;;;5075238;28;20966;-71
2022/02/18 02:12:39;;;;;;;62.97;5.37;;;;;;;;;;5075293;28;21063;-72
2022/02/18 02:15:08;;;;;;;70.77;6.00;;;;;;;;;;5075508;28;20469;-71
2022/02/18 02:17:35;;;;;;;67.77;5.30;;;;;;;;;;5075123;28;20785;-72
2022/02/18 02:20:02;;;;;;;66.30;4.60;;;;;;;;;;5075152;28;21018;-71
2022/02/18 02:22:31;;;;;;;65.90;5.20;;;;;;;;;;5075112;28;20862;-71
2022/02/18 02:24:58;;;;;;;64.90;5.13;;;;;;;;;;5075098;28;20472;-71
2022/02/18 02:27:25;;;;;;;65.87;4.97;;;;;;;;;;5074730;28;20960;-71
2022/02/18 02:29:53;;;;;;;71.73;4.70;;;;;;;;;;5074941;28;20903;-72
2022/02/18 02:32:20;;;;;;;66.60;5.10;;;;;;;;;;5075254;28;20930;-71
2022/02/18 02:34:47;;;;;;;67.10;4.00;;;;;;;;;;5074853;28;21033;-71
2022/02/18 02:37:15;;;;;;;75.27;5.17;;;;;;;;;;5074840;28;20449;-72
2022/02/18 02:39:44;;;;;;;71.60;4.77;;;;;;;;;;5074976;28;20446;-72
2022/02/18 02:42:11;;;;;;;75.23;5.10;;;;;;;;;;5074642;28;20561;-72
2022/02/18 02:44:38;;;;;;;68.50;4.90;;;;;;;;;;5074567;28;21020;-71
2022/02/18 02:47:06;;;;;;;66.67;4.67;;;;;;;;;;5073207;28;20827;-71
2022/02/18 02:49:33;;;;;;;65.33;4.47;;;;;;;;;;5074630;28;20453;-71
2022/02/18 02:52:00;;;;;;;71.47;5.17;;;;;;;;;;5074477;28;20967;-72
2022/02/18 02:54:27;;;;;;;67.57;4.17;;;;;;;;;;5074409;28;20469;-72
2022/02/18 02:56:56;;;;;;;69.70;5.10;;;;;;;;;;5074654;28;20445;-71
2022/02/18 02:59:24;;;;;;;66.83;5.07;;;;;;;;;;5074286;28;20999;-72
2022/02/18 03:01:51;;;;;;;70.03;4.80;;;;;;;;;;5074435;28;20576;-71
2022/02/18 03:04:19;;;;;;;67.83;4.53;;;;;;;;;;5074182;28;20471;-72
2022/02/18 03:06:46;;;;;;;72.07;5.70;;;;;;;;;;5073623;28;20450;-72
2022/02/18 03:09:14;;;;;;;62.07;4.07;;;;;;;;;;5074285;28;20454;-73
2022/02/18 03:11:42;;;;;;;64.20;4.10;;;;;;;;;;5074434;28;20454;-72
2022/02/18 03:14:10;;;;;;;65.80;4.70;;;;;;;;;;5074364;28;20476;-72
2022/02/18 03:16:38;;;;;;;65.53;4.67;;;;;;;;;;5074260;28;20822;-72
2022/02/18 03:19:05;;;;;;;65.80;4.40;;;;;;;;;;5073749;28;20456;-72
2022/02/18 03:21:32;;;;;;;66.37;4.93;;;;;;;;;;5074157;28;20579;-73
2022/02/18 03:23:59;;;;;;;65.27;4.80;;;;;;;;;;5074121;28;20471;-72
2022/02/18 03:26:26;;;;;;;61.93;3.90;;;;;;;;;;5074067;28;20481;-73
2022/02/18 03:28:53;;;;;;;70.70;4.43;;;;;;;;;;5073579;28;20979;-72
2022/02/18 03:31:22;;;;;;;71.47;4.80;;;;;;;;;;5073804;28;20464;-72
2022/02/18 03:33:49;;;;;;;69.53;4.30;;;;;;;;;;5073943;28;20480;-72
2022/02/18 03:36:16;;;;;;;78.30;5.33;;;;;;;;;;5073974;28;20534;-72
2022/02/18 03:38:43;;;;;;;66.53;4.03;;;;;;;;;;5073581;28;20536;-72
2022/02/18 03:41:10;;;;;;;64.57;3.97;;;;;;;;;;5073629;28;20458;-75
2022/02/18 03:43:37;;;;;;;64.67;4.43;;;;;;;;;;5073609;28;20451;-72
2022/02/18 03:46:05;;;;;;;65.03;4.40;;;;;;;;;;5073542;28;20472;-73
2022/02/18 03:48:33;;;;;;;69.97;4.83;;;;;;;;;;5073502;28;20890;-72
2022/02/18 03:51:00;;;;;;;65.30;4.07;;;;;;;;;;5073841;28;20465;-72
2022/02/18 03:53:27;;;;;;;73.17;4.63;;;;;;;;;;5073569;28;20537;-72
2022/02/18 03:55:59;;;;;;;65.30;4.10;;;;;;;;;;5073492;28;20456;-72
2022/02/18 03:58:26;;;;;;;69.90;5.13;;;;;;;;;;5073119;28;20548;-71
2022/02/18 04:00:54;;;;;;;69.40;4.13;;;;;;;;;;5073534;28;20799;-72
2022/02/18 04:03:21;;;;;;;64.07;4.10;;;;;;;;;;5073127;28;21044;-71
2022/02/18 04:05:50;;;;;;;66.57;4.33;;;;;;;;;;5073330;28;20560;-71
2022/02/18 04:08:17;;;;;;;64.67;4.17;;;;;;;;;;5073000;28;20532;-74
2022/02/18 04:10:44;;;;;;;63.53;4.27;;;;;;;;;;5073200;28;20456;-70
2022/02/18 04:13:12;;;;;;;66.00;4.90;;;;;;;;;;5072943;28;20999;-73
2022/02/18 04:15:39;;;;;;;69.13;4.20;;;;;;;;;;5072938;28;20551;-73
2022/02/18 04:18:06;;;;;;;68.40;4.10;;;;;;;;;;5072354;28;20537;-72
2022/02/18 04:20:33;;;;;;;65.53;4.17;;;;;;;;;;5072910;28;20449;-71
2022/02/18 04:23:02;;;;;;;65.50;4.40;;;;;;;;;;5072489;28;21047;-72
2022/02/18 04:25:30;;;;;;;66.40;4.33;;;;;;;;;;5072735;28;20474;-72
2022/02/18 04:27:58;;;;;;;73.30;4.10;;;;;;;;;;5072233;28;20495;-72
2022/02/18 04:30:25;;;;;;;63.40;4.47;;;;;;;;;;5072533;28;20457;-72
2022/02/18 04:32:52;;;;;;;64.57;4.10;;;;;;;;;;5072348;28;20446;-72
2022/02/18 04:35:20;;;;;;;65.07;5.33;;;;;;;;;;5072396;28;20801;-71
2022/02/18 04:37:48;;;;;;;64.57;4.40;;;;;;;;;;5072229;28;20935;-71
2022/02/18 04:40:17;;;;;;;65.07;3.77;;;;;;;;;;5072484;28;20949;-70
2022/02/18 04:42:45;;;;;;;63.97;4.30;;;;;;;;;;5072494;28;20486;-72
2022/02/18 04:45:13;;;;;;;63.43;4.10;;;;;;;;;;5072527;28;20854;-73
2022/02/18 04:47:40;;;;;;;68.43;4.17;;;;;;;;;;5072153;28;20482;-74
2022/02/18 04:50:08;;;;;;;61.87;3.60;;;;;;;;;;5072428;28;20540;-72
2022/02/18 04:52:35;;;;;;;67.80;3.40;;;;;;;;;;5072114;28;20616;-72
2022/02/18 04:55:03;;;;;;;63.87;3.90;;;;;;;;;;5072241;28;20492;-72
2022/02/18 04:57:31;;;;;;;64.30;4.30;;;;;;;;;;5072153;28;20900;-72
2022/02/18 04:59:59;;;;;;;64.37;4.23;;;;;;;;;;5072429;28;20806;-72
2022/02/18 05:02:27;;;;;;;71.70;4.30;;;;;;;;;;5072004;28;20587;-73
2022/02/18 05:04:54;;;;;;;67.53;4.20;;;;;;;;;;5072097;28;20475;-72
2022/02/18 05:07:21;;;;;;;70.80;6.70;;;;;;;;;;5071663;28;20496;-72
2022/02/18 05:09:48;;;;;;;65.83;4.27;;;;;;;;;;5072369;28;20445;-72
2022/02/18 05:12:17;;;;;;;68.33;4.23;;;;;;;;;;5072008;28;20453;-72
2022/02/18 05:14:45;;;;;;;67.40;4.23;;;;;;;;;;5072089;28;20898;-72
2022/02/18 05:17:12;;;;;;;65.47;5.23;;;;;;;;;;5071616;28;20852;-72
2022/02/18 05:19:39;;;;;;;66.20;4.63;;;;;;;;;;5071702;28;20447;-72
2022/02/18 05:22:06;;;;;;;70.60;4.67;;;;;;;;;;5071988;28;20500;-71
2022/02/18 05:24:34;;;;;;;68.37;4.17;;;;;;;;;;5071690;28;20474;-72
2022/02/18 05:27:01;;;;;;;65.87;4.50;;;;;;;;;;5071746;28;20447;-71
2022/02/18 05:29:28;;;;;;;63.50;4.40;;;;;;;;;;5071219;28;20468;-72
2022/02/18 05:31:56;;;;;;;68.80;4.47;;;;;;;;;;5072232;28;20450;-71
2022/02/18 05:34:24;;;;;;;63.30;4.13;;;;;;;;;;5071972;28;20464;-72
2022/02/18 05:36:51;;;;;;;68.10;4.60;;;;;;;;;;5071918;28;20541;-71
2022/02/18 05:39:18;;;;;;;63.97;4.10;;;;;;;;;;5071686;28;20446;-71
2022/02/18 05:41:45;;;;;;;63.23;4.20;;;;;;;;;;5071638;28;20541;-72
2022/02/18 05:44:12;;;;;;;63.53;4.20;;;;;;;;;;5071458;28;20474;-71
2022/02/18 05:46:39;;;;;;;65.03;4.07;;;;;;;;;;5071676;28;20459;-71
2022/02/18 05:49:08;;;;;;;64.93;4.17;;;;;;;;;;5071232;28;20628;-71
2022/02/18 05:51:36;;;;;;;62.97;4.10;;;;;;;;;;5071756;28;20520;-72
2022/02/18 05:54:03;;;;;;;72.60;4.10;;;;;;;;;;5071579;28;20515;-71
2022/02/18 05:56:30;;;;;;;61.53;3.60;;;;;;;;;;5071593;28;20460;-71
2022/02/18 05:58:57;;;;;;;72.27;4.77;;;;;;;;;;5071160;28;20965;-71
2022/02/18 06:01:24;;;;;;;64.60;5.03;;;;;;;;;;5071350;28;20457;-72
2022/02/18 06:03:52;;;;;;;67.30;4.00;;;;;;;;;;5071326;28;20484;-71
2022/02/18 06:06:20;;;;;;;65.70;4.83;;;;;;;;;;5071554;28;20450;-72
2022/02/18 06:08:47;;;;;;;65.63;4.03;;;;;;;;;;5071283;28;20453;-72
2022/02/18 06:11:14;;;;;;;67.03;4.37;;;;;;;;;;5071272;28;20443;-74
2022/02/18 06:13:41;;;;;;;63.77;4.40;;;;;;;;;;5071127;28;20456;-71
2022/02/18 06:16:09;;;;;;;68.33;4.10;;;;;;;;;;5071050;28;20452;-72
2022/02/18 06:18:36;;;;;;;65.70;4.83;;;;;;;;;;5070905;28;20542;-72
2022/02/18 06:21:04;;;;;;;62.37;4.50;;;;;;;;;;5071382;28;20449;-73
2022/02/18 06:23:33;;;;;;;69.33;4.67;;;;;;;;;;5071200;28;20479;-73
2022/02/18 06:26:00;;;;;;;61.03;4.27;;;;;;;;;;5071753;28;20452;-72
2022/02/18 06:28:27;;;;;;;65.17;4.00;;;;;;;;;;5070726;28;20847;-72
2022/02/18 06:30:54;;;;;;;63.23;4.17;;;;;;;;;;5071087;28;20460;-72
2022/02/18 06:33:21;;;;;;;70.73;4.70;;;;;;;;;;5071152;28;20838;-73
2022/02/18 06:35:48;;;;;;;63.67;4.37;;;;;;;;;;5071156;28;20555;-72
2022/02/18 06:38:16;;;;;;;69.60;4.27;;;;;;;;;;5070803;28;20457;-72
2022/02/18 06:40:44;;;;;;;68.90;3.70;;;;;;;;;;5072140;28;20511;-70
2022/02/18 06:43:11;;;;;;;63.07;4.07;;;;;;;;;;5074478;28;20479;-73
2022/02/18 06:45:38;;;;;;;70.27;4.17;;;;;;;;;;5074780;28;20469;-72
2022/02/18 06:48:07;;;;;;;72.53;4.17;;;;;;;;;;5074522;28;20446;-73
2022/02/18 06:50:35;;;;;;;69.03;3.87;;;;;;;;;;5074716;28;20465;-72
2022/02/18 06:53:02;;;;;;;65.60;4.10;;;;;;;;;;5074305;28;20487;-72
2022/02/18 06:55:29;;;;;;;66.40;4.50;;;;;;;;;;5074523;28;20548;-71
2022/02/18 06:57:58;;;;;;;63.13;4.10;;;;;;;;;;5074442;28;20466;-72
2022/02/18 07:00:26;;;;;;;68.50;4.30;;;;;;;;;;5074973;28;20503;-72
2022/02/18 07:02:53;;;;;;;72.77;4.30;;;;;;;;;;5074558;28;20859;-72
2022/02/18 07:05:20;;;;;;;67.87;3.67;;;;;;;;;;5074486;28;20849;-73
2022/02/18 07:07:47;;;;;;;66.07;4.17;;;;;;;;;;5074146;28;20458;-72
2022/02/18 07:10:15;;;;;;;72.37;5.10;;;;;;;;;;5074169;28;20541;-72
2022/02/18 07:12:42;;;;;;;66.90;4.67;;;;;;;;;;5074365;28;20453;-74
2022/02/18 07:15:12;;;;;;;63.20;4.20;;;;;;;;;;5074302;28;20474;-72
2022/02/18 07:17:39;;;;;;;64.00;4.73;;;;;;;;;;5074036;28;20537;-73
2022/02/18 07:20:08;;;;;;;64.57;4.27;;;;;;;;;;5074244;28;20538;-73
2022/02/18 07:22:37;;;;;;;64.37;4.23;;;;;;;;;;5073789;28;20519;-72
2022/02/18 07:25:05;;;;;;;63.57;4.20;;;;;;;;;;5074288;28;20482;-70
2022/02/18 07:27:32;;;;;;;62.93;4.60;;;;;;;;;;5073946;28;20909;-71
2022/02/18 07:30:00;;;;;;;69.07;4.30;;;;;;;;;;5073789;28;20458;-70
2022/02/18 07:32:28;;;;;;;64.80;4.10;;;;;;;;;;5073933;28;20453;-72
2022/02/18 07:34:55;;;;;;;64.60;4.03;;;;;;;;;;5073806;28;20475;-72
2022/02/18 07:37:23;;;;;;;71.30;5.07;;;;;;;;;;5073470;28;20963;-72
2022/02/18 07:39:50;;;;;;;62.57;4.50;;;;;;;;;;5073668;28;20450;-72
2022/02/18 07:42:17;;;;;;;66.13;4.07;;;;;;;;;;5073749;28;20534;-73
2022/02/18 07:44:44;;;;;;;68.23;4.20;;;;;;;;;;5076633;28;20492;-73
2022/02/18 07:47:11;;;;;;;68.47;3.90;;;;;;;;;;5092996;28;20458;-73
2022/02/18 07:49:42;;;;;;;64.60;4.10;;;;;;;;;;5093272;28;20452;-73
2022/02/18 07:52:09;;;;;;;64.30;3.97;;;;;;;;;;5093007;28;20453;-73
2022/02/18 07:54:36;;;;;;;64.50;4.47;;;;;;;;;;5093051;28;20548;-71
2022/02/18 07:57:04;;;;;;;61.50;4.00;;;;;;;;;;5093360;28;20540;-71
2022/02/18 07:59:31;;;;;;;68.97;3.80;;;;;;;;;;5093248;28;20485;-71
2022/02/18 08:01:58;;;;;;;60.57;3.50;;;;;;;;;;5093232;28;20464;-72
2022/02/18 08:04:25;;;;;;;71.83;3.90;;;;;;;;;;5092743;28;20572;-72
2022/02/18 08:06:54;;;;;;;63.53;3.50;;;;;;;;;;5093208;28;20556;-72
2022/02/18 08:09:21;;;;;;;62.07;3.57;;;;;;;;;;5092874;28;20533;-72
2022/02/18 08:11:48;;;;;;;60.57;3.30;;;;;;;;;;5093367;28;20472;-72
2022/02/18 08:14:15;;;;;;;61.83;3.30;;;;;;;;;;5092875;28;20476;-72
2022/02/18 08:16:42;;;;;;;61.33;3.20;;;;;;;;;;5092524;28;20946;-72
2022/02/18 08:19:10;;;;;;;62.53;3.90;;;;;;;;;;5092820;28;20548;-72
2022/02/18 08:21:37;;;;;;;66.60;3.93;;;;;;;;;;5092983;28;20485;-72
2022/02/18 08:24:06;;;;;;;67.40;4.10;;;;;;;;;;5090181;28;20489;-72
2022/02/18 08:26:33;;;;;;;61.27;3.80;;;;;;;;;;5092575;28;20545;-72
2022/02/18 08:29:00;;;;;;;65.17;4.50;;;;;;;;;;5092075;28;20454;-72
2022/02/18 08:31:28;;;;;;;66.40;3.97;;;;;;;;;;5092007;28;20545;-72
2022/02/18 08:33:55;;;;;;;67.73;3.87;;;;;;;;;;5092384;28;20470;-72
2022/02/18 08:36:22;;;;;;;64.40;3.90;;;;;;;;;;5092250;28;20980;-72
2022/02/18 08:38:49;;;;;;;62.97;3.50;;;;;;;;;;5092133;28;20877;-72
2022/02/18 08:41:18;;;;;;;66.70;3.93;;;;;;;;;;5092216;28;20450;-73
2022/02/18 08:43:45;;;;;;;63.30;3.50;;;;;;;;;;5091948;28;20496;-73
2022/02/18 08:46:12;;;;;;;65.00;3.87;;;;;;;;;;5092438;28;20553;-73
2022/02/18 08:48:39;;;;;;;63.40;3.20;;;;;;;;;;5091964;28;20446;-71
2022/02/18 08:51:06;;;;;;;61.33;3.10;;;;;;;;;;5092225;28;20450;-71
2022/02/18 08:53:34;;;;;;;63.47;3.10;;;;;;;;;;5091901;28;20482;-71
2022/02/18 08:56:01;;;;;;;61.93;3.43;;;;;;;;;;5090361;28;20965;-72
2022/02/18 08:58:29;;;;;;;66.77;3.40;;;;;;;;;;5092250;28;20537;-71
2022/02/18 09:00:57;;;;;;;61.50;3.70;;;;;;;;;;5091663;28;20460;-72
2022/02/18 09:03:24;;;;;;;59.17;3.20;;;;;;;;;;5091015;28;20478;-71
2022/02/18 09:05:51;;;;;;;60.10;2.90;;;;;;;;;;5091813;28;20660;-71
2022/02/18 09:08:21;;;;;;;63.20;3.17;;;;;;;;;;5091340;28;20538;-71
2022/02/18 09:10:50;;;;;;;63.30;3.00;;;;;;;;;;5091667;28;20939;-71
2022/02/18 09:13:17;;;;;;;61.63;3.37;;;;;;;;;;5091527;28;20446;-69
2022/02/18 09:15:45;;;;;;;62.63;3.50;;;;;;;;;;5092032;28;20990;-71
2022/02/18 09:18:13;;;;;;;61.60;3.17;;;;;;;;;;5091789;28;20446;-72
2022/02/18 09:20:40;;;;;;;61.70;2.83;;;;;;;;;;5091540;28;20446;-71
2022/02/18 09:23:07;;;;;;;58.50;2.80;;;;;;;;;;5091520;28;20484;-71
2022/02/18 09:25:35;;;;;;;60.13;2.70;;;;;;;;;;5091154;28;20556;-71
2022/02/18 09:28:02;;;;;;;58.20;2.60;;;;;;;;;;5082899;28;20540;-71
2022/02/18 09:30:30;;;;;;;59.20;3.13;;;;;;;;;;5071216;28;20486;-71
2022/02/18 09:32:58;;;;;;;62.00;3.10;;;;;;;;;;5070675;28;20458;-72
2022/02/18 09:35:26;;;;;;;59.17;2.70;;;;;;;;;;5069931;28;20468;-72
2022/02/18 09:37:54;;;;;;;58.57;2.57;;;;;;;;;;5071086;28;20455;-71
2022/02/18 09:40:21;;;;;;;59.10;2.73;;;;;;;;;;5071241;28;20970;-72
2022/02/18 09:42:48;;;;;;;60.20;2.80;;;;;;;;;;5071500;28;20451;-72
2022/02/18 09:45:18;;;;;;;61.47;3.00;;;;;;;;;;5071287;28;20483;-72
2022/02/18 09:47:46;;;;;;;59.13;2.70;;;;;;;;;;5071752;28;20494;-72
2022/02/18 09:50:14;;;;;;;58.57;2.80;;;;;;;;;;5071046;28;20451;-72
2022/02/18 09:52:42;;;;;;;58.80;2.70;;;;;;;;;;5070754;28;20447;-72
2022/02/18 09:55:09;;;;;;;59.33;3.00;;;;;;;;;;5070931;28;20466;-72
2022/02/18 09:57:36;;;;;;;60.70;3.27;;;;;;;;;;5070864;28;20447;-72
2022/02/18 10:00:05;;;;;;;59.90;2.40;;;;;;;;;;5069907;28;20957;-72
2022/02/18 10:02:32;;;;;;;59.00;2.57;;;;;;;;;;5070907;28;20444;-72
2022/02/18 10:05:00;;;;;;;58.47;3.03;;;;;;;;;;5070902;28;20859;-72
2022/02/18 10:07:29;;;;;;;58.93;2.80;;;;;;;;;;5071022;28;20550;-72
2022/02/18 10:09:56;;;;;;;58.37;2.63;;;;;;;;;;5071005;28;20455;-73
2022/02/18 10:12:34;;;;;;;59.80;2.83;;;;;;;;;;5070465;28;20945;-72
2022/02/18 10:15:07;;;;;;;61.40;3.03;;;;;;;;;;5072428;28;20463;-72
2022/02/18 10:17:38;;;;;;;59.87;2.67;;;;;;;;;;5074597;28;20448;-72
2022/02/18 10:20:14;;;;;;;61.27;2.90;;;;;;;;;;5074896;28;20462;-72
2022/02/18 10:22:54;;;;;;;58.50;2.80;;;;;;;;;;5074917;28;20454;-72
2022/02/18 10:25:24;;;;;;;60.50;3.10;;;;;;;;;;5074749;28;20497;-72
2022/02/18 10:27:51;;;;;;;60.30;2.63;;;;;;;;;;5075207;28;20446;-72
2022/02/18 10:30:22;;;;;;;59.17;2.60;;;;;;;;;;5073264;28;20466;-73
2022/02/18 10:32:49;;;;;;;58.60;2.70;;;;;;;;;;5074303;28;20515;-73
2022/02/18 10:35:19;;;;;;;58.90;2.60;;;;;;;;;;5074413;28;20842;-73
2022/02/18 10:37:49;;;;;;;58.97;3.00;;;;;;;;;;5074079;28;20462;-73
2022/02/18 10:40:18;;;;;;;60.20;2.80;;;;;;;;;;5074724;28;20452;-72
2022/02/18 10:42:46;;;;;;;59.00;2.70;;;;;;;;;;5074540;28;20462;-73
2022/02/18 10:45:14;;;;;;;59.90;2.57;;;;;;;;;;5074364;28;20904;-73
2022/02/18 10:47:42;;;;;;;62.20;2.80;;;;;;;;;;5074767;28;20456;-73
2022/02/18 10:50:16;;;;;;;60.00;2.83;;;;;;;;;;5074199;28;20950;-72
2022/02/18 10:52:44;;;;;;;65.60;2.53;;;;;;;;;;5074225;28;20968;-72
2022/02/18 10:55:13;;;;;;;58.27;2.67;;;;;;;;;;5074100;28;20456;-73
2022/02/18 10:57:40;;;;;;;60.80;2.73;;;;;;;;;;5074235;28;20451;-73
2022/02/18 11:00:15;;;;;;;61.50;3.03;;;;;;;;;;5074491;28;20448;-72
2022/02/18 11:02:46;;;;;;;60.40;3.43;;;;;;;;;;5072176;28;20506;-72
2022/02/18 11:05:26;;;;;;;58.57;2.60;;;;;;;;;;5073958;28;20492;-72
2022/02/18 11:07:53;;;;;;;63.87;3.10;;;;;;;;;;5073839;28;20819;-73
2022/02/18 11:10:35;;;;;;;63.93;2.93;;;;;;;;;;5073722;28;20540;-73
2022/02/18 11:13:03;;;;;;;59.07;3.83;;;;;;;;;;5073373;28;20541;-73
2022/02/18 11:15:30;;;;;;;59.83;2.90;;;;;;;;;;5073492;28;20837;-73
2022/02/18 11:17:58;;;;;;;63.43;3.17;;;;;;;;;;5073304;28;20532;-73
2022/02/18 11:20:26;;;;;;;61.00;3.13;;;;;;;;;;5074357;28;20461;-73
2022/02/18 11:22:54;;;;;;;61.13;2.80;;;;;;;;;;5073883;28;20482;-72
2022/02/18 11:25:21;;;;;;;63.00;2.77;;;;;;;;;;5073523;28;20490;-73
2022/02/18 11:27:50;;;;;;;59.27;2.70;;;;;;;;;;5072866;28;20461;-72
2022/02/18 11:30:17;;;;;;;64.13;2.80;;;;;;;;;;5086644;28;20455;-72
2022/02/18 11:32:48;;;;;;;66.17;2.70;;;;;;;;;;5093184;28;20456;-70
2022/02/18 11:35:23;;;;;;;59.90;3.27;;;;;;;;;;5075893;28;20470;-70
2022/02/18 11:38:11;;;;;;;60.73;3.00;;;;;;;;;;5073321;28;20451;-70
2022/02/18 11:40:50;;;;;;;61.80;2.67;;;;;;;;;;5073376;28;20450;-71
2022/02/18 11:43:27;;;;;;;58.70;2.30;;;;;;;;;;5073088;28;21012;-71
2022/02/18 11:45:55;;;;;;;62.10;2.60;;;;;;;;;;5073472;28;20481;-71
2022/02/18 11:48:38;;;;;;;60.10;2.80;;;;;;;;;;5073507;28;20485;-71
2022/02/18 11:51:09;;;;;;;58.30;2.47;;;;;;;;;;5073076;28;20450;-72
2022/02/18 11:53:40;;;;;;;59.60;2.93;;;;;;;;;;5073110;28;20453;-71
2022/02/18 11:56:08;;;;;;;59.60;3.23;;;;;;;;;;5073121;28;20461;-73
2022/02/18 11:58:52;;;;;;;57.97;2.60;;;;;;;;;;5072963;28;20853;-71
2022/02/18 12:01:20;;;;;;;60.37;2.70;;;;;;;;;;5073059;28;20454;-71
2022/02/18 12:04:06;;;;;;;59.50;2.87;;;;;;;;;;5072468;28;20485;-70
2022/02/18 12:06:33;;;;;;;58.77;2.60;;;;;;;;;;5071576;28;20459;-71
2022/02/18 12:09:00;;;;;;;59.63;2.80;;;;;;;;;;5072593;28;20450;-72
2022/02/18 12:11:28;;;;;;;58.63;2.50;;;;;;;;;;5072672;28;20509;-70
2022/02/18 12:13:57;;;;;;;61.83;2.87;;;;;;;;;;5072095;28;20914;-71
2022/02/18 12:16:26;;;;;;;58.30;2.50;;;;;;;;;;5072364;28;20454;-71
2022/02/18 12:19:06;;;;;;;61.27;2.93;;;;;;;;;;5072279;28;20935;-71
2022/02/18 12:21:33;;;;;;;62.10;3.03;;;;;;;;;;5072884;28;20504;-70
2022/02/18 12:24:15;;;;;;;59.00;2.50;;;;;;;;;;5072414;28;20471;-72
2022/02/18 12:26:42;;;;;;;57.73;2.30;;;;;;;;;;5072334;28;20443;-72
2022/02/18 12:29:29;;;;;;;59.00;2.70;;;;;;;;;;5072066;28;20528;-70
2022/02/18 12:32:00;;;;;;;60.60;2.90;;;;;;;;;;5061390;28;20970;-71
2022/02/18 12:34:28;;;;;;;57.97;2.60;;;;;;;;;;5072174;28;20562;-71
2022/02/18 12:36:56;;;;;;;58.80;3.37;;;;;;;;;;5070925;28;20483;-71
2022/02/18 12:39:35;;;;;;;58.17;2.40;;;;;;;;;;5070536;28;20454;-71
2022/02/18 12:42:06;;;;;;;60.80;3.13;;;;;;;;;;5072219;28;20836;-71
2022/02/18 12:44:34;;;;;;;59.73;2.73;;;;;;;;;;5072030;28;20570;-71
2022/02/18 12:47:02;;;;;;;58.67;3.00;;;;;;;;;;5071980;28;20452;-71
2022/02/18 12:49:44;;;;;;;61.80;2.60;;;;;;;;;;5071791;28;20830;-71
2022/02/18 12:52:13;;;;;;;58.90;3.10;;;;;;;;;;5070508;28;20880;-72
2022/02/18 12:54:46;;;;;;;57.90;2.50;;;;;;;;;;5071318;28;20467;-71
2022/02/18 12:57:17;;;;;;;61.67;3.00;;;;;;;;;;5071333;28;20454;-71
2022/02/18 12:59:45;;;;;;;59.30;2.53;;;;;;;;;;5071911;28;20438;-71
2022/02/18 13:02:33;;;;;;;58.57;2.80;;;;;;;;;;5071969;28;20869;-71
2022/02/18 13:05:05;;;;;;;59.97;2.47;;;;;;;;;;5071711;28;20490;-70
2022/02/18 13:07:34;;;;;;;60.30;2.97;;;;;;;;;;5071496;28;20472;-71
2022/02/18 13:10:02;;;;;;;60.43;2.47;;;;;;;;;;5088788;28;20452;-71
2022/02/18 13:12:29;;;;;;;57.83;2.73;;;;;;;;;;5091764;28;20449;-72
2022/02/18 13:15:04;;;;;;;58.10;2.87;;;;;;;;;;5091678;28;20469;-71
2022/02/18 13:17:32;;;;;;;61.90;3.03;;;;;;;;;;5091603;28;20460;-71
2022/02/18 13:20:00;;;;;;;60.57;3.23;;;;;;;;;;5091914;28;20452;-71
2022/02/18 13:22:34;;;;;;;57.87;2.67;;;;;;;;;;5091816;28;20456;-70
2022/02/18 13:25:01;;;;;;;59.07;2.60;;;;;;;;;;5091692;28;20573;-71
2022/02/18 13:27:42;;;;;;;59.87;2.60;;;;;;;;;;5091867;28;20537;-72
2022/02/18 13:30:09;;;;;;;59.50;3.20;;;;;;;;;;5091522;28;20898;-71
2022/02/18 13:32:38;;;;;;;62.03;2.43;;;;;;;;;;5091724;28;20537;-71
2022/02/18 13:35:06;;;;;;;60.90;2.60;;;;;;;;;;5091288;28;21019;-71
2022/02/18 13:37:34;;;;;;;64.40;2.53;;;;;;;;;;5091224;28;20503;-70
2022/02/18 13:40:03;;;;;;;60.30;2.70;;;;;;;;;;5089293;28;20455;-71
2022/02/18 13:42:30;;;;;;;58.30;2.40;;;;;;;;;;5091662;28;20917;-70
2022/02/18 13:45:00;;;;;;;58.80;2.50;;;;;;;;;;5091238;28;21044;-70
2022/02/18 13:47:30;;;;;;;59.37;2.60;;;;;;;;;;5091423;28;20454;-71
2022/02/18 13:49:59;;;;;;;58.67;2.67;;;;;;;;;;5091087;28;20556;-71
2022/02/18 13:52:26;;;;;;;57.93;2.80;;;;;;;;;;5091196;28;20461;-70
2022/02/18 13:54:53;;;;;;;59.27;2.90;;;;;;;;;;5090866;28;20547;-70
2022/02/18 13:57:23;;;;;;;58.93;2.90;;;;;;;;;;5091350;28;20450;-71
2022/02/18 13:59:50;;;;;;;60.30;3.00;;;;;;;;;;5091428;28;20459;-71
2022/02/18 14:02:18;;;;;;;57.97;2.80;;;;;;;;;;5091261;28;20929;-70
2022/02/18 14:04:47;;;;;;;58.17;2.57;;;;;;;;;;5090861;28;20495;-70
2022/02/18 14:07:18;;;;;;;58.93;2.60;;;;;;;;;;5090597;28;20456;-70
2022/02/18 14:09:45;;;;;;;59.90;2.63;;;;;;;;;;5091334;28;20448;-70
2022/02/18 14:12:14;;;;;;;58.80;2.67;;;;;;;;;;5089245;28;20452;-71
2022/02/18 14:14:42;;;;;;;58.30;2.70;;;;;;;;;;5090985;28;20560;-71
2022/02/18 14:17:09;;;;;;;58.20;2.70;;;;;;;;;;5090945;28;20458;-71
2022/02/18 14:19:46;;;;;;;69.33;2.80;;;;;;;;;;5091200;28;20453;-70
2022/02/18 14:22:14;;;;;;;58.73;2.60;;;;;;;;;;5091163;28;20466;-71
2022/02/18 14:24:43;;;;;;;57.27;2.70;;;;;;;;;;5091077;28;20488;-70
2022/02/18 14:27:12;;;;;;;62.63;2.70;;;;;;;;;;5090690;28;20453;-72
2022/02/18 14:29:51;;;;;;;60.97;2.83;;;;;;;;;;5090930;28;20907;-71
2022/02/18 14:32:25;;;;;;;58.07;2.70;;;;;;;;;;5091133;28;20550;-71
2022/02/18 14:34:59;;;;;;;61.20;2.70;;;;;;;;;;5090633;28;20551;-71
2022/02/18 14:37:27;;;;;;;59.27;3.03;;;;;;;;;;5090530;28;20877;-71
2022/02/18 14:39:55;;;;;;;60.40;2.63;;;;;;;;;;5090733;28;20485;-72